Segui, Argentina
Current Conditions -  °F | °C
As of 9:00 AM on Wednesday 28 Jan 2015 (Local Time) from SAAR Reporting Station
Thunderstorm Thunderstorm  
Wind Chill: 72°   Ceiling: 4500
Heat Index: 72°   Visibility: 1.8mi
Dew Point: 70°   Wind: 12mph
Humidity: 94%   Direction: 230°SW
Pressure: 29.83"   Gusts: NA
Location:  31.95°S, 60.13°W
Report Text: SAAR 281200Z 23010KT 3000 TSRA SCT015 FEW040CB OVC04522/21 Q1010
Loading
Personal Weather Stations






























Interactive Weather Map New forecast layout! Learn more

10-Day Weather Forecast

Advertisements
Track Severe Weather on mobile